Time;durP1;ratioP1;P1;durP2;ratioP2;P2;SDS_P1;SDS_P2;PMS_P1;PMS_P2;Temp;Humidity;BMP_temperature;BMP_pressure;BME280_temperature;BME280_humidity;BME280_pressure;Samples;Min_cycle;Max_cycle;Signal;HPM_P1;HPM_P2
2022/12/26 00:01:33;;;;;;;23.23;11.83;;;9.50;99.90;;;;;;5065320;28;20208;-65
2022/12/26 00:04:02;;;;;;;26.23;12.13;;;9.50;99.90;;;;;;5068142;28;20288;-65
2022/12/26 00:06:31;;;;;;;24.67;12.00;;;9.50;99.90;;;;;;5103515;28;20204;-65
2022/12/26 00:09:05;;;;;;;23.93;11.83;;;9.50;99.90;;;;;;5069209;28;20208;-65
2022/12/26 00:11:34;;;;;;;32.80;13.30;;;9.50;99.90;;;;;;5069173;28;20582;-65
2022/12/26 00:14:06;;;;;;;27.07;12.40;;;9.60;99.90;;;;;;5067797;28;20651;-65
2022/12/26 00:16:35;;;;;;;30.93;13.13;;;9.60;99.90;;;;;;5064868;28;20206;-65
2022/12/26 00:19:04;;;;;;;26.47;13.17;;;9.70;99.90;;;;;;5064695;28;20200;-65
2022/12/26 00:21:32;;;;;;;27.00;13.27;;;9.70;99.90;;;;;;5073532;28;20219;-65
2022/12/26 00:24:01;;;;;;;34.37;14.67;;;9.60;99.90;;;;;;5070393;28;20207;-65
2022/12/26 00:26:34;;;;;;;30.60;13.83;;;9.60;99.90;;;;;;5072031;28;20196;-65
2022/12/26 00:29:03;;;;;;;32.33;14.30;;;9.60;99.90;;;;;;5072727;28;20210;-64
2022/12/26 00:31:33;;;;;;;28.93;13.93;;;9.60;99.90;;;;;;5071830;28;20188;-65
2022/12/26 00:34:03;;;;;;;30.57;14.10;;;9.60;99.90;;;;;;5070259;28;20708;-65
2022/12/26 00:36:34;;;;;;;27.00;13.90;;;9.50;99.90;;;;;;5064146;28;20224;-65
2022/12/26 00:39:05;;;;;;;33.67;13.70;;;9.50;99.90;;;;;;5074427;28;20195;-65
2022/12/26 00:41:35;;;;;;;27.53;13.20;;;9.50;99.90;;;;;;5065667;28;20740;-65
2022/12/26 00:44:03;;;;;;;26.47;13.20;;;9.40;99.90;;;;;;5072336;28;20218;-65
2022/12/26 00:46:31;;;;;;;28.70;13.63;;;9.50;99.90;;;;;;5076426;28;20200;-65
2022/12/26 00:49:00;;;;;;;28.03;12.93;;;9.50;99.90;;;;;;5062779;28;20288;-65
2022/12/26 00:51:28;;;;;;;30.33;13.10;;;9.60;99.90;;;;;;5070735;28;20725;-65
2022/12/26 00:53:56;;;;;;;25.97;13.03;;;9.60;99.90;;;;;;5072609;28;20192;-65
2022/12/26 00:56:25;;;;;;;28.70;13.57;;;9.60;99.90;;;;;;5067895;28;20220;-65
2022/12/26 00:58:55;;;;;;;23.27;12.17;;;9.60;99.90;;;;;;5075323;28;20211;-65
2022/12/26 01:01:23;;;;;;;25.53;12.67;;;9.60;99.90;;;;;;5070574;28;20219;-65
2022/12/26 01:03:53;;;;;;;23.60;12.60;;;9.60;99.90;;;;;;5070067;28;20196;-65
2022/12/26 01:06:21;;;;;;;20.27;11.70;;;9.50;99.90;;;;;;5069643;28;20275;-65
2022/12/26 01:08:49;;;;;;;20.13;11.67;;;9.50;99.90;;;;;;5072004;28;20306;-65
2022/12/26 01:11:38;;;;;;;21.73;11.03;;;9.40;99.90;;;;;;5070950;28;20223;-65
2022/12/26 01:14:11;;;;;;;17.40;10.73;;;9.40;99.90;;;;;;5069289;28;20192;-65
2022/12/26 01:16:41;;;;;;;21.87;11.27;;;9.30;99.90;;;;;;5071901;28;20203;-65
2022/12/26 01:19:10;;;;;;;18.77;10.33;;;9.30;99.90;;;;;;5070231;28;20203;-65
2022/12/26 01:21:39;;;;;;;19.53;11.00;;;9.30;99.90;;;;;;5079205;28;20708;-65
2022/12/26 01:24:08;;;;;;;15.23;10.33;;;9.20;99.90;;;;;;5064706;28;20705;-65
2022/12/26 01:26:36;;;;;;;19.97;10.97;;;9.20;99.90;;;;;;5063152;28;20226;-65
2022/12/26 01:29:05;;;;;;;19.00;10.30;;;9.10;99.90;;;;;;5069080;28;20572;-65
2022/12/26 01:31:35;;;;;;;18.80;10.73;;;9.10;99.90;;;;;;5065819;28;20554;-65
2022/12/26 01:34:03;;;;;;;18.47;9.60;;;9.00;99.90;;;;;;5067656;28;20655;-65
2022/12/26 01:36:31;;;;;;;20.73;11.13;;;9.00;99.90;;;;;;5078212;28;20207;-65
2022/12/26 01:39:03;;;;;;;17.40;9.13;;;9.00;99.90;;;;;;5070016;28;20201;-65
2022/12/26 01:41:32;;;;;;;17.40;9.47;;;9.00;99.90;;;;;;5062241;28;20236;-65
2022/12/26 01:44:01;;;;;;;19.20;10.20;;;8.90;99.90;;;;;;5068146;28;20200;-65
2022/12/26 01:46:33;;;;;;;16.30;9.03;;;8.90;99.90;;;;;;5067730;28;20279;-65
2022/12/26 01:49:15;;;;;;;15.43;9.30;;;8.80;99.90;;;;;;5063879;28;20197;-65
2022/12/26 01:51:47;;;;;;;17.20;9.27;;;8.80;99.90;;;;;;5065923;28;20250;-65
2022/12/26 01:54:16;;;;;;;16.50;8.90;;;8.80;99.90;;;;;;5063470;28;20191;-65
2022/12/26 01:57:16;;;;;;;17.37;9.70;;;8.70;99.90;;;;;;5063115;28;20229;-65
2022/12/26 01:59:46;;;;;;;16.47;9.03;;;8.80;99.90;;;;;;5065300;28;20208;-65
2022/12/26 02:02:16;;;;;;;18.03;9.33;;;8.70;99.90;;;;;;5077889;28;20354;-65
2022/12/26 02:07:40;;;;;;;15.90;9.13;;;8.80;99.90;;;;;;5069916;28;20764;-65
2022/12/26 02:10:14;;;;;;;16.87;8.87;;;8.80;99.90;;;;;;5067972;28;20199;-65
2022/12/26 02:12:43;;;;;;;17.20;9.57;;;8.80;99.90;;;;;;5071335;28;20219;-65
2022/12/26 02:15:13;;;;;;;14.90;9.80;;;8.80;99.90;;;;;;5072043;28;20188;-65
2022/12/26 02:17:42;;;;;;;19.33;9.93;;;8.80;99.90;;;;;;5069035;28;20202;-65
2022/12/26 02:20:20;;;;;;;18.47;10.17;;;8.80;99.90;;;;;;5070357;28;20803;-65
2022/12/26 02:23:30;;;;;;;14.60;9.30;;;8.80;99.90;;;;;;5069840;28;20220;-65
2022/12/26 02:26:28;;;;;;;16.37;9.70;;;8.80;99.90;;;;;;5054345;28;20211;-65
2022/12/26 02:29:23;;;;;;;15.10;9.07;;;8.80;99.90;;;;;;5074019;28;20200;-65
2022/12/26 02:32:04;;;;;;;16.40;9.20;;;8.80;99.90;;;;;;5065386;28;20539;-64
2022/12/26 02:34:45;;;;;;;15.03;9.23;;;8.80;99.90;;;;;;5063122;28;20192;-65
2022/12/26 02:37:31;;;;;;;15.23;9.13;;;8.80;99.90;;;;;;5065862;28;20215;-65
2022/12/26 02:40:18;;;;;;;16.27;9.53;;;8.70;99.90;;;;;;5066306;28;20188;-65
2022/12/26 02:42:57;;;;;;;14.73;9.13;;;8.70;99.90;;;;;;5056710;28;20665;-65
2022/12/26 02:48:33;;;;;;;20.27;10.10;;;8.70;99.90;;;;;;5061648;28;20192;-65
2022/12/26 03:14:11;;;;;;;33.07;14.47;;;8.90;99.90;;;;;;5066754;28;20204;-65
2022/12/26 03:19:29;;;;;;;28.10;12.57;;;8.90;99.90;;;;;;5072587;28;20230;-64
2022/12/26 03:22:29;;;;;;;22.27;11.50;;;9.00;99.90;;;;;;5066284;28;20216;-64
2022/12/26 03:27:33;;;;;;;15.50;9.63;;;9.00;99.90;;;;;;5064076;28;20183;-64
2022/12/26 03:32:47;;;;;;;15.27;9.10;;;9.10;99.90;;;;;;5065110;28;20195;-64
2022/12/26 03:35:16;;;;;;;13.17;9.00;;;9.10;99.90;;;;;;5073243;28;20195;-64
2022/12/26 03:37:55;;;;;;;15.10;9.47;;;9.10;99.90;;;;;;5068454;28;20192;-64
2022/12/26 04:21:06;;;;;;;10.87;7.53;;;9.20;99.90;;;;;;5071105;28;20192;-64
2022/12/26 04:46:22;;;;;;;11.13;7.03;;;9.20;99.90;;;;;;5074036;28;20200;-65
2022/12/26 04:51:39;;;;;;;11.67;7.43;;;9.30;99.90;;;;;;5074056;28;20200;-64
2022/12/26 04:54:08;;;;;;;10.83;6.53;;;9.40;99.90;;;;;;5073051;28;20215;-63
2022/12/26 04:56:36;;;;;;;11.00;6.57;;;9.40;99.90;;;;;;5070691;28;20204;-63
2022/12/26 04:59:07;;;;;;;8.83;6.27;;;9.50;99.90;;;;;;5069399;28;21148;-64
2022/12/26 05:10:03;;;;;;;6.13;5.23;;;9.50;99.90;;;;;;5067600;28;20222;-63
2022/12/26 05:12:31;;;;;;;7.63;5.43;;;9.50;99.90;;;;;;5068407;28;20232;-64
2022/12/26 05:14:59;;;;;;;5.87;4.80;;;9.50;99.90;;;;;;5065278;28;20201;-63
2022/12/26 05:28:57;;;;;;;4.27;3.97;;;9.60;99.90;;;;;;5067667;28;20203;-63
2022/12/26 05:31:25;;;;;;;4.93;3.73;;;9.50;99.90;;;;;;5064920;28;20197;-64
2022/12/26 05:34:05;;;;;;;4.17;3.73;;;9.40;99.90;;;;;;5068381;28;20200;-63
2022/12/26 05:36:38;;;;;;;6.40;3.80;;;9.50;99.90;;;;;;5068846;28;20223;-63
2022/12/26 05:39:08;;;;;;;5.20;3.90;;;9.40;99.90;;;;;;5068162;28;20201;-63
2022/12/26 05:41:37;;;;;;;4.27;3.83;;;9.40;99.90;;;;;;5069692;28;20275;-63
2022/12/26 05:44:05;;;;;;;4.60;4.20;;;9.50;99.90;;;;;;5062938;28;21189;-63
2022/12/26 05:46:35;;;;;;;4.40;4.00;;;9.50;99.90;;;;;;5091865;28;20206;-64
2022/12/26 05:49:05;;;;;;;5.93;4.10;;;9.50;99.90;;;;;;5062490;28;20193;-64
2022/12/26 05:51:34;;;;;;;3.90;3.60;;;9.50;99.90;;;;;;5063237;28;20265;-63
2022/12/26 05:54:03;;;;;;;4.70;4.27;;;9.50;99.90;;;;;;5084533;28;20184;-63
2022/12/26 05:56:31;;;;;;;4.37;4.00;;;9.50;99.90;;;;;;5059627;28;20208;-63
2022/12/26 05:59:01;;;;;;;5.93;4.17;;;9.50;99.90;;;;;;5063387;28;20184;-63
2022/12/26 06:01:30;;;;;;;4.90;3.80;;;9.40;99.90;;;;;;5061384;28;20192;-64
2022/12/26 06:04:00;;;;;;;4.33;3.97;;;9.50;99.90;;;;;;5060874;28;20247;-63
2022/12/26 06:06:30;;;;;;;4.93;4.27;;;9.40;99.90;;;;;;5064129;28;20227;-65
2022/12/26 06:08:59;;;;;;;4.23;3.93;;;9.40;99.90;;;;;;5064669;28;20196;-65
2022/12/26 06:11:27;;;;;;;4.57;3.70;;;9.50;99.90;;;;;;5062460;28;20318;-63
2022/12/26 06:13:56;;;;;;;6.23;3.97;;;9.60;99.90;;;;;;5059388;28;20594;-65
2022/12/26 06:16:24;;;;;;;3.87;3.50;;;9.60;99.90;;;;;;5066003;28;20196;-65
2022/12/26 06:18:54;;;;;;;6.27;3.57;;;9.60;99.90;;;;;;5061692;28;20291;-65
2022/12/26 06:21:23;;;;;;;6.97;3.70;;;9.60;99.90;;;;;;5068320;28;20199;-65
2022/12/26 06:23:53;;;;;;;3.73;3.40;;;9.70;99.90;;;;;;5099593;28;20229;-65
2022/12/26 06:26:22;;;;;;;4.73;3.57;;;9.70;99.90;;;;;;5075066;28;20192;-65
2022/12/26 06:28:51;;;;;;;3.80;3.20;;;9.80;99.90;;;;;;5059009;28;20200;-65
2022/12/26 06:31:21;;;;;;;3.67;3.33;;;9.80;99.90;;;;;;5061375;28;20192;-65
2022/12/26 06:33:51;;;;;;;5.23;3.17;;;9.90;99.90;;;;;;5066923;28;20198;-63
2022/12/26 06:36:21;;;;;;;3.60;3.27;;;9.90;99.90;;;;;;5064891;28;20535;-65
2022/12/26 06:38:50;;;;;;;5.27;3.10;;;9.90;99.90;;;;;;5059282;28;20200;-65
2022/12/26 06:41:21;;;;;;;3.20;3.00;;;9.90;99.90;;;;;;5057298;28;20201;-65
2022/12/26 06:43:50;;;;;;;3.30;3.00;;;9.90;99.90;;;;;;5062643;28;20212;-65
2022/12/26 06:46:20;;;;;;;6.67;3.10;;;9.90;99.90;;;;;;5059567;28;20266;-65
2022/12/26 06:48:49;;;;;;;6.87;2.83;;;9.90;99.90;;;;;;5059436;28;20203;-65
2022/12/26 06:51:20;;;;;;;3.87;3.23;;;9.90;99.90;;;;;;5065631;28;20203;-65
2022/12/26 06:53:48;;;;;;;4.80;3.00;;;9.80;99.90;;;;;;5058533;28;20184;-62
2022/12/26 06:56:21;;;;;;;6.90;2.70;;;9.80;99.90;;;;;;5058492;28;20212;-62
2022/12/26 06:58:53;;;;;;;2.73;2.50;;;9.80;99.90;;;;;;5063584;28;20205;-62
2022/12/26 07:01:23;;;;;;;7.00;2.63;;;9.80;99.90;;;;;;5061698;28;20191;-62
2022/12/26 07:03:53;;;;;;;2.60;2.40;;;9.80;99.90;;;;;;5066992;28;20690;-65
2022/12/26 07:06:23;;;;;;;4.20;2.40;;;9.80;99.90;;;;;;5067203;28;20206;-65
2022/12/26 07:08:53;;;;;;;2.93;2.50;;;9.80;99.90;;;;;;5062715;28;20208;-65
2022/12/26 07:11:24;;;;;;;2.07;1.90;;;9.80;99.90;;;;;;5060437;28;20598;-65
2022/12/26 07:13:54;;;;;;;3.47;2.20;;;9.80;99.90;;;;;;5067081;28;20520;-65
2022/12/26 07:16:23;;;;;;;3.97;2.50;;;9.90;99.90;;;;;;5060737;28;20622;-65
2022/12/26 07:18:54;;;;;;;2.30;2.17;;;9.90;99.90;;;;;;5062073;28;20678;-65
2022/12/26 07:21:23;;;;;;;2.90;2.00;;;9.80;99.90;;;;;;5055610;28;20558;-65
2022/12/26 07:23:52;;;;;;;6.20;1.77;;;9.90;99.90;;;;;;5067309;28;20220;-65
2022/12/26 07:26:22;;;;;;;6.17;1.90;;;9.90;99.90;;;;;;5057000;28;20200;-65
2022/12/26 07:28:53;;;;;;;4.90;2.00;;;9.90;99.90;;;;;;5054075;28;20302;-65
2022/12/26 07:31:22;;;;;;;2.80;2.20;;;9.90;99.90;;;;;;5060974;28;20192;-65
2022/12/26 07:33:52;;;;;;;3.20;2.00;;;9.90;99.90;;;;;;5066557;28;20287;-65
2022/12/26 07:36:23;;;;;;;5.30;2.33;;;9.90;99.90;;;;;;5067123;28;20203;-65
2022/12/26 07:38:52;;;;;;;3.47;1.90;;;9.80;99.90;;;;;;5054923;28;20283;-65
2022/12/26 07:44:10;;;;;;;2.33;2.13;;;9.70;99.90;;;;;;5067627;28;20202;-64
2022/12/26 07:46:38;;;;;;;3.03;1.90;;;9.70;99.90;;;;;;5059353;28;20196;-65
2022/12/26 07:49:07;;;;;;;3.00;2.00;;;9.70;99.90;;;;;;5067511;28;20212;-65
2022/12/26 07:51:36;;;;;;;7.47;1.90;;;9.70;99.90;;;;;;5065428;28;20279;-65
2022/12/26 07:54:05;;;;;;;5.07;2.10;;;9.70;99.90;;;;;;5067363;28;20196;-65
2022/12/26 07:56:40;;;;;;;3.53;2.00;;;9.70;99.90;;;;;;5059602;28;20283;-65
2022/12/26 07:59:14;;;;;;;2.00;1.80;;;9.70;99.90;;;;;;5061994;28;20544;-65
2022/12/26 08:01:45;;;;;;;4.77;2.27;;;9.70;99.90;;;;;;5056047;28;20253;-65
2022/12/26 08:04:14;;;;;;;4.83;2.10;;;9.80;99.90;;;;;;5063078;28;20195;-65
2022/12/26 08:06:42;;;;;;;3.53;2.30;;;9.80;99.90;;;;;;5061246;28;20206;-65
2022/12/26 08:09:15;;;;;;;2.43;1.90;;;9.70;99.90;;;;;;5063202;28;20196;-65
2022/12/26 08:11:45;;;;;;;2.80;2.53;;;9.70;99.90;;;;;;5066364;28;20309;-64
2022/12/26 08:14:15;;;;;;;3.67;2.20;;;9.70;99.90;;;;;;5096853;28;20673;-65
2022/12/26 08:16:43;;;;;;;3.37;2.30;;;9.70;99.90;;;;;;5066415;28;20288;-65
2022/12/26 08:19:23;;;;;;;3.33;2.30;;;9.70;99.90;;;;;;5071335;28;20242;-64
2022/12/26 08:21:51;;;;;;;7.37;3.43;;;9.70;99.90;;;;;;5067312;28;20199;-65
2022/12/26 08:24:20;;;;;;;5.13;3.10;;;9.70;99.90;;;;;;5065187;28;20227;-65
2022/12/26 08:26:50;;;;;;;4.10;2.77;;;9.70;99.90;;;;;;5067866;28;20234;-62
2022/12/26 08:29:19;;;;;;;4.23;2.63;;;9.70;99.90;;;;;;5065280;28;20200;-65
2022/12/26 08:31:47;;;;;;;6.47;2.10;;;9.70;99.90;;;;;;5065257;28;20205;-65
2022/12/26 08:34:16;;;;;;;5.57;2.30;;;9.70;99.90;;;;;;5062293;28;20254;-62
2022/12/26 08:36:44;;;;;;;2.73;2.13;;;9.70;99.90;;;;;;5059818;28;20646;-65
2022/12/26 08:39:15;;;;;;;4.37;2.00;;;9.70;99.90;;;;;;5064042;28;20711;-65
2022/12/26 08:41:44;;;;;;;4.47;2.10;;;9.80;99.90;;;;;;5067833;28;20206;-65
2022/12/26 08:44:16;;;;;;;4.63;1.73;;;9.90;99.90;;;;;;5066383;28;20206;-65
2022/12/26 08:46:55;;;;;;;2.00;1.80;;;9.90;99.90;;;;;;5063984;28;20199;-65
2022/12/26 08:49:23;;;;;;;3.67;2.10;;;10.00;99.90;;;;;;5070764;28;20527;-65
2022/12/26 08:51:52;;;;;;;3.67;2.17;;;10.00;99.90;;;;;;5067658;28;20947;-65
2022/12/26 08:54:20;;;;;;;2.77;1.97;;;10.00;99.90;;;;;;5066143;28;20203;-63
2022/12/26 08:56:48;;;;;;;9.03;2.20;;;9.90;99.90;;;;;;5060350;28;20204;-65
2022/12/26 08:59:18;;;;;;;6.17;2.37;;;9.80;99.90;;;;;;5066790;28;20673;-65
2022/12/26 09:01:47;;;;;;;6.50;2.00;;;9.80;99.90;;;;;;5067023;28;20291;-65
2022/12/26 09:04:15;;;;;;;6.87;2.07;;;9.70;99.90;;;;;;5069265;28;20200;-65
2022/12/26 09:06:44;;;;;;;3.80;2.03;;;9.60;99.90;;;;;;5076015;28;20223;-65
2022/12/26 09:09:12;;;;;;;5.30;2.37;;;9.60;99.90;;;;;;5093785;28;20200;-65
2022/12/26 09:11:42;;;;;;;4.77;2.23;;;9.60;99.90;;;;;;5066369;28;20319;-65
2022/12/26 09:14:11;;;;;;;2.70;2.50;;;9.60;99.90;;;;;;5060251;28;20729;-65
2022/12/26 09:16:44;;;;;;;7.77;2.80;;;9.70;99.90;;;;;;5064629;28;20196;-65
2022/12/26 09:19:18;;;;;;;8.43;2.80;;;9.70;99.90;;;;;;5069135;28;20203;-65
2022/12/26 09:21:48;;;;;;;7.30;2.50;;;9.70;99.90;;;;;;5066934;28;20796;-65
2022/12/26 09:24:18;;;;;;;9.53;2.43;;;9.70;99.90;;;;;;5059032;28;20247;-65
2022/12/26 09:26:46;;;;;;;4.90;2.73;;;9.70;99.90;;;;;;5062705;28;20220;-65
2022/12/26 09:29:15;;;;;;;3.37;2.60;;;9.70;99.90;;;;;;5100671;28;20208;-65
2022/12/26 09:31:44;;;;;;;3.93;2.53;;;9.70;99.90;;;;;;5065317;28;20196;-65
2022/12/26 09:34:13;;;;;;;2.43;2.33;;;9.70;99.90;;;;;;5060270;28;20206;-65
2022/12/26 09:36:41;;;;;;;3.80;2.37;;;9.70;99.90;;;;;;5062036;28;20188;-65
2022/12/26 09:39:11;;;;;;;4.93;2.17;;;9.70;99.90;;;;;;5061224;28;20204;-65
2022/12/26 09:42:01;;;;;;;4.97;2.37;;;9.80;99.90;;;;;;5101559;28;20192;-65
2022/12/26 09:44:42;;;;;;;5.40;2.53;;;9.80;99.90;;;;;;5066282;28;20639;-65
2022/12/26 09:47:23;;;;;;;6.60;2.90;;;9.80;99.90;;;;;;5061874;28;20220;-65
2022/12/26 09:49:55;;;;;;;6.13;2.60;;;9.80;99.90;;;;;;5099787;28;20291;-65
2022/12/26 09:52:32;;;;;;;4.93;2.17;;;9.80;99.90;;;;;;5067971;28;20275;-65
2022/12/26 09:55:04;;;;;;;3.27;2.00;;;9.80;99.90;;;;;;5067930;28;20203;-65
2022/12/26 09:57:38;;;;;;;6.43;2.30;;;9.90;99.90;;;;;;5063974;28;20198;-65
2022/12/26 10:00:07;;;;;;;2.53;2.30;;;9.90;99.90;;;;;;5063178;28;20192;-65
2022/12/26 10:02:37;;;;;;;6.13;2.33;;;9.90;99.90;;;;;;5050379;28;20204;-65
2022/12/26 10:05:07;;;;;;;3.20;2.07;;;9.90;99.90;;;;;;5051452;28;20202;-65
2022/12/26 10:07:42;;;;;;;5.13;2.00;;;9.90;99.90;;;;;;5060234;28;20266;-65
2022/12/26 10:10:12;;;;;;;2.60;1.90;;;9.90;99.90;;;;;;5053087;28;20200;-65
2022/12/26 10:12:52;;;;;;;3.23;2.20;;;9.90;99.90;;;;;;5055339;28;20232;-65
2022/12/26 10:15:34;;;;;;;3.80;2.17;;;10.00;99.90;;;;;;5061974;28;20275;-65
2022/12/26 10:18:15;;;;;;;5.33;2.57;;;9.90;99.90;;;;;;5055643;28;20188;-65
2022/12/26 10:20:54;;;;;;;4.77;2.87;;;9.80;99.90;;;;;;5059910;28;20195;-65
2022/12/26 10:23:33;;;;;;;5.00;2.40;;;9.70;99.90;;;;;;5062921;28;20210;-65
2022/12/26 10:26:08;;;;;;;4.73;1.77;;;9.60;99.90;;;;;;5062698;28;20247;-64
2022/12/26 10:28:41;;;;;;;5.17;1.70;;;9.50;99.90;;;;;;5068301;28;20275;-65
2022/12/26 10:31:16;;;;;;;4.43;1.73;;;9.40;99.90;;;;;;5061520;28;20200;-65
2022/12/26 10:33:51;;;;;;;7.80;1.77;;;9.40;99.90;;;;;;5055007;28;20230;-65
2022/12/26 10:36:28;;;;;;;6.63;1.57;;;9.40;99.90;;;;;;5057581;28;20211;-64
2022/12/26 10:39:00;;;;;;;4.47;1.77;;;9.40;99.90;;;;;;5056510;28;20298;-65
2022/12/26 10:41:37;;;;;;;5.60;2.07;;;9.40;99.90;;;;;;5061670;28;20196;-65
2022/12/26 10:44:08;;;;;;;6.40;1.60;;;9.40;99.90;;;;;;5053162;28;20205;-64
2022/12/26 10:47:12;;;;;;;7.53;1.83;;;9.40;99.90;;;;;;5054252;28;20637;-65
2022/12/26 10:49:45;;;;;;;4.93;1.90;;;9.40;99.90;;;;;;5057341;28;20212;-65
2022/12/26 10:52:14;;;;;;;4.03;1.80;;;9.40;99.90;;;;;;5060624;28;20202;-65
2022/12/26 10:54:47;;;;;;;5.73;2.33;;;9.50;99.90;;;;;;5051769;28;20200;-65
2022/12/26 10:57:16;;;;;;;5.93;1.80;;;9.40;99.90;;;;;;5055163;28;20760;-64
2022/12/26 10:59:47;;;;;;;6.47;2.30;;;9.40;99.90;;;;;;5059817;28;20197;-65
2022/12/26 11:02:24;;;;;;;8.27;2.20;;;9.40;99.90;;;;;;5059746;28;20238;-64
2022/12/26 11:05:10;;;;;;;5.03;1.80;;;9.50;99.90;;;;;;5068516;28;20192;-64
2022/12/26 11:08:10;;;;;;;4.40;1.70;;;9.50;99.90;;;;;;5058821;28;20220;-64
2022/12/26 11:10:39;;;;;;;3.03;2.00;;;9.40;99.90;;;;;;5076174;28;20196;-64
2022/12/26 11:13:18;;;;;;;8.13;2.03;;;9.40;99.90;;;;;;5054314;28;20203;-65
2022/12/26 11:15:51;;;;;;;7.93;1.83;;;9.30;99.90;;;;;;5056584;28;20670;-64
2022/12/26 11:18:26;;;;;;;5.93;2.00;;;9.30;99.90;;;;;;5057444;28;20269;-64
2022/12/26 11:21:12;;;;;;;9.63;2.30;;;9.20;99.90;;;;;;5058366;28;20257;-64
2022/12/26 11:23:41;;;;;;;9.23;3.37;;;9.10;99.90;;;;;;5065599;28;20231;-64
2022/12/26 11:26:21;;;;;;;10.37;4.07;;;9.10;99.90;;;;;;5063137;28;20207;-64
2022/12/26 11:29:05;;;;;;;6.87;2.00;;;9.10;99.90;;;;;;5062207;28;20697;-64
2022/12/26 11:31:34;;;;;;;8.10;3.40;;;9.10;99.90;;;;;;5058027;28;20208;-64
2022/12/26 11:34:08;;;;;;;5.93;3.10;;;9.00;99.90;;;;;;5058982;28;20227;-64
2022/12/26 11:36:46;;;;;;;5.17;2.17;;;9.00;99.90;;;;;;5057360;28;21048;-64
2022/12/26 11:39:23;;;;;;;4.23;1.93;;;9.00;99.90;;;;;;5066933;28;20215;-64
2022/12/26 11:41:52;;;;;;;5.90;2.30;;;9.00;99.90;;;;;;5061899;28;20226;-64
2022/12/26 11:44:28;;;;;;;8.10;2.73;;;9.00;99.90;;;;;;5095524;28;20668;-64
2022/12/26 11:47:00;;;;;;;6.83;2.90;;;8.90;99.90;;;;;;5063031;28;20218;-64
2022/12/26 11:49:33;;;;;;;6.43;2.47;;;8.90;99.90;;;;;;5060942;28;20551;-64
2022/12/26 11:52:33;;;;;;;6.43;2.03;;;8.80;99.90;;;;;;5072998;28;20227;-64
2022/12/26 11:55:02;;;;;;;6.77;2.40;;;8.80;99.90;;;;;;5059382;28;20643;-64
2022/12/26 11:57:32;;;;;;;8.90;2.30;;;8.80;99.90;;;;;;5055740;28;20199;-64
2022/12/26 12:00:16;;;;;;;9.00;2.20;;;8.70;99.90;;;;;;5055073;28;20230;-64
2022/12/26 12:02:46;;;;;;;9.97;2.87;;;8.70;99.90;;;;;;5058629;28;20197;-64
2022/12/26 12:05:22;;;;;;;9.70;2.13;;;8.70;99.90;;;;;;5061594;28;20646;-64
2022/12/26 12:08:06;;;;;;;9.23;2.50;;;8.60;99.90;;;;;;5069314;28;20215;-64
2022/12/26 12:10:48;;;;;;;3.93;2.40;;;8.50;99.90;;;;;;5061702;28;20229;-64
2022/12/26 12:13:42;;;;;;;6.40;2.10;;;8.50;99.90;;;;;;5060170;28;20208;-64
2022/12/26 12:16:28;;;;;;;5.53;2.40;;;8.50;99.90;;;;;;5074538;28;20238;-64
2022/12/26 12:19:07;;;;;;;5.13;2.37;;;8.50;99.90;;;;;;5060426;28;20214;-64
2022/12/26 12:21:44;;;;;;;6.77;2.90;;;8.50;99.90;;;;;;5066001;28;20192;-64
2022/12/26 12:24:51;;;;;;;6.07;2.60;;;8.50;99.90;;;;;;5071592;28;20311;-64
2022/12/26 12:27:26;;;;;;;8.03;2.77;;;8.50;99.90;;;;;;5058603;28;20239;-64
2022/12/26 12:30:16;;;;;;;8.43;2.40;;;8.50;99.90;;;;;;5060409;28;20211;-64
2022/12/26 12:33:01;;;;;;;7.87;2.40;;;8.40;99.90;;;;;;5060198;28;20196;-64
2022/12/26 12:35:46;;;;;;;10.93;2.50;;;8.40;99.90;;;;;;5088373;28;20192;-64
2022/12/26 12:38:33;;;;;;;5.33;2.10;;;8.40;99.90;;;;;;5058819;28;20227;-64
2022/12/26 12:41:20;;;;;;;8.37;2.50;;;8.40;99.90;;;;;;5060598;28;20196;-64
2022/12/26 12:43:55;;;;;;;6.67;3.60;;;8.40;99.90;;;;;;5062559;28;20326;-64
2022/12/26 12:46:33;;;;;;;12.73;3.07;;;8.30;99.90;;;;;;5062517;28;20671;-64
2022/12/26 12:49:22;;;;;;;8.80;2.60;;;8.30;99.90;;;;;;5064665;28;20532;-64
2022/12/26 12:51:59;;;;;;;6.57;2.33;;;8.40;99.90;;;;;;5063198;28;20608;-62
2022/12/26 12:55:00;;;;;;;10.77;3.27;;;8.40;99.90;;;;;;5064186;28;20192;-64
2022/12/26 12:57:36;;;;;;;9.07;2.40;;;8.40;99.90;;;;;;5069388;28;20806;-64
2022/12/26 13:00:15;;;;;;;8.20;2.83;;;8.30;99.90;;;;;;5070578;28;20211;-64
2022/12/26 13:02:51;;;;;;;6.57;2.30;;;8.30;99.90;;;;;;5063304;28;20193;-64
2022/12/26 13:05:28;;;;;;;6.67;2.30;;;8.30;99.90;;;;;;5068291;28;20236;-64
2022/12/26 13:08:04;;;;;;;6.20;2.30;;;8.30;99.90;;;;;;5070342;28;20204;-64
2022/12/26 13:10:36;;;;;;;14.07;3.40;;;8.30;99.90;;;;;;5070506;28;20184;-64
2022/12/26 13:13:17;;;;;;;12.17;3.70;;;8.30;99.90;;;;;;5072355;28;20203;-62
2022/12/26 13:15:50;;;;;;;11.73;3.17;;;8.30;99.90;;;;;;5068766;28;20200;-63
2022/12/26 13:18:22;;;;;;;5.57;3.70;;;8.30;99.90;;;;;;5070762;28;20561;-62
2022/12/26 13:20:54;;;;;;;5.40;3.30;;;8.30;99.90;;;;;;5072967;28;20200;-62
2022/12/26 13:26:17;;;;;;;9.70;2.60;;;8.30;99.90;;;;;;5077810;28;20586;-62
2022/12/26 13:28:54;;;;;;;9.77;3.50;;;8.20;99.90;;;;;;5064722;28;20315;-62
2022/12/26 13:31:22;;;;;;;12.83;5.90;;;8.20;99.90;;;;;;5066189;28;20211;-62
2022/12/26 13:33:51;;;;;;;14.33;6.00;;;8.20;99.90;;;;;;5071957;28;20207;-63
2022/12/26 13:36:42;;;;;;;10.77;3.57;;;8.20;99.90;;;;;;5068297;28;20191;-62
2022/12/26 13:39:45;;;;;;;7.57;2.70;;;8.20;99.90;;;;;;5072104;28;20199;-63
2022/12/26 13:45:58;;;;;;;9.33;2.47;;;8.10;99.90;;;;;;5068697;28;20753;-62
2022/12/26 13:48:57;;;;;;;13.00;3.23;;;8.00;99.90;;;;;;5069246;28;20562;-62
2022/12/26 13:51:50;;;;;;;8.43;2.23;;;7.90;99.90;;;;;;5063306;28;20211;-62
2022/12/26 13:54:20;;;;;;;5.63;2.17;;;7.80;99.90;;;;;;5076619;28;20690;-62
2022/12/26 13:57:25;;;;;;;4.63;1.90;;;7.80;99.90;;;;;;5070601;28;20196;-63
2022/12/26 14:00:12;;;;;;;10.70;2.83;;;7.80;99.90;;;;;;5061032;28;20200;-63
2022/12/26 14:03:16;;;;;;;7.33;3.03;;;7.70;99.90;;;;;;5067114;28;20279;-62
2022/12/26 14:06:28;;;;;;;7.13;2.27;;;7.70;99.90;;;;;;5067695;28;20261;-62
2022/12/26 14:09:20;;;;;;;5.27;3.17;;;7.70;99.90;;;;;;5066742;28;20204;-62
2022/12/26 14:12:02;;;;;;;4.10;2.07;;;7.50;99.90;;;;;;5068677;28;20228;-62
2022/12/26 14:14:41;;;;;;;5.57;2.23;;;7.40;99.90;;;;;;5068640;28;20613;-62
2022/12/26 14:17:19;;;;;;;3.20;1.80;;;7.30;99.90;;;;;;5069572;28;20203;-62
2022/12/26 14:19:59;;;;;;;7.17;2.80;;;7.20;99.90;;;;;;5062889;28;20639;-62
2022/12/26 14:22:39;;;;;;;3.97;1.87;;;7.10;99.90;;;;;;5065129;28;20197;-62
2022/12/26 14:25:16;;;;;;;8.57;2.00;;;7.10;99.90;;;;;;5070815;28;20229;-63
2022/12/26 14:27:52;;;;;;;5.50;1.83;;;7.00;99.90;;;;;;5093724;28;20310;-62
2022/12/26 14:30:25;;;;;;;5.27;2.37;;;6.90;99.90;;;;;;5068027;28;20202;-62
2022/12/26 14:33:14;;;;;;;9.10;2.50;;;6.90;99.90;;;;;;5051934;28;20666;-62
2022/12/26 14:35:53;;;;;;;10.80;4.13;;;6.80;99.90;;;;;;5079464;28;20212;-62
2022/12/26 14:38:33;;;;;;;9.40;3.40;;;6.80;99.90;;;;;;5070393;28;20745;-62
2022/12/26 14:41:06;;;;;;;10.00;4.13;;;6.70;99.90;;;;;;5063013;28;20597;-62
2022/12/26 14:43:36;;;;;;;6.83;3.07;;;6.70;99.90;;;;;;5064022;28;20222;-62
2022/12/26 14:46:28;;;;;;;10.80;3.57;;;6.60;99.90;;;;;;5062057;28;20199;-62
2022/12/26 14:48:59;;;;;;;6.93;3.60;;;6.50;99.90;;;;;;5065320;28;20496;-62
2022/12/26 14:51:35;;;;;;;9.80;3.10;;;6.40;99.90;;;;;;5066679;28;20218;-62
2022/12/26 14:54:38;;;;;;;7.17;3.30;;;6.40;99.90;;;;;;5067148;28;20199;-62
2022/12/26 14:57:46;;;;;;;6.03;3.20;;;6.40;99.90;;;;;;5060151;28;20199;-62
2022/12/26 15:00:34;;;;;;;4.83;2.77;;;6.30;99.90;;;;;;5063478;28;20200;-62
2022/12/26 15:03:44;;;;;;;9.93;3.27;;;6.20;99.90;;;;;;5062934;28;20192;-62
2022/12/26 15:06:46;;;;;;;6.60;3.50;;;6.10;99.90;;;;;;5065931;28;20261;-62
2022/12/26 15:09:46;;;;;;;7.33;3.20;;;6.00;99.90;;;;;;5094764;28;20673;-62
2022/12/26 15:12:54;;;;;;;9.67;4.63;;;6.00;99.90;;;;;;5078564;28;20242;-63
2022/12/26 15:15:37;;;;;;;8.50;2.60;;;5.90;99.90;;;;;;5056781;28;20566;-62
2022/12/26 15:18:43;;;;;;;5.47;2.53;;;5.80;99.90;;;;;;5058966;28;20879;-62
2022/12/26 15:21:49;;;;;;;15.03;4.80;;;5.70;99.90;;;;;;5076522;28;20188;-62
2022/12/26 15:25:02;;;;;;;6.30;3.50;;;5.60;99.90;;;;;;5056306;28;20231;-62
2022/12/26 15:28:24;;;;;;;5.53;2.67;;;5.60;99.90;;;;;;5060933;28;20195;-62
2022/12/26 15:31:15;;;;;;;6.63;2.37;;;5.50;99.90;;;;;;5064113;28;20192;-62
2022/12/26 15:33:52;;;;;;;4.13;2.20;;;5.40;99.90;;;;;;5063093;28;20203;-62
2022/12/26 15:36:28;;;;;;;12.23;2.43;;;5.30;99.90;;;;;;5065835;28;20195;-62
2022/12/26 15:39:02;;;;;;;7.63;2.80;;;5.20;99.90;;;;;;5065057;28;20195;-62
2022/12/26 15:41:45;;;;;;;8.57;2.50;;;5.10;99.90;;;;;;5063956;28;20204;-62
2022/12/26 15:44:26;;;;;;;9.07;2.87;;;5.00;99.90;;;;;;5067872;28;20203;-62
2022/12/26 15:47:04;;;;;;;9.47;2.60;;;4.90;99.90;;;;;;5055743;28;20191;-62
2022/12/26 15:49:48;;;;;;;4.97;2.37;;;4.80;99.90;;;;;;5065950;28;20234;-62